sensor_id;sensor_type;location;lat;lon;timestamp;P1;durP1;ratioP1;P2;durP2;ratioP2
4294;SDS011;2161;53.634;10.100;2023-04-19T00:01:57;549.03;;;111.30;;
4294;SDS011;2161;53.634;10.100;2023-04-19T00:04:22;549.23;;;111.17;;
4294;SDS011;2161;53.634;10.100;2023-04-19T00:06:49;551.63;;;111.68;;
4294;SDS011;2161;53.634;10.100;2023-04-19T00:09:15;552.58;;;111.93;;
4294;SDS011;2161;53.634;10.100;2023-04-19T00:11:41;554.67;;;113.77;;
4294;SDS011;2161;53.634;10.100;2023-04-19T00:14:07;558.87;;;116.37;;
4294;SDS011;2161;53.634;10.100;2023-04-19T00:16:32;551.53;;;111.90;;
4294;SDS011;2161;53.634;10.100;2023-04-19T00:18:58;553.93;;;112.97;;
4294;SDS011;2161;53.634;10.100;2023-04-19T00:21:23;555.97;;;115.17;;
4294;SDS011;2161;53.634;10.100;2023-04-19T00:23:50;552.92;;;112.20;;
4294;SDS011;2161;53.634;10.100;2023-04-19T00:26:16;548.63;;;110.90;;
4294;SDS011;2161;53.634;10.100;2023-04-19T00:28:41;546.33;;;111.30;;
4294;SDS011;2161;53.634;10.100;2023-04-19T00:31:07;543.53;;;109.70;;
4294;SDS011;2161;53.634;10.100;2023-04-19T00:33:32;544.10;;;110.60;;
4294;SDS011;2161;53.634;10.100;2023-04-19T00:35:58;547.70;;;111.07;;
4294;SDS011;2161;53.634;10.100;2023-04-19T00:38:24;554.80;;;118.30;;
4294;SDS011;2161;53.634;10.100;2023-04-19T00:40:49;548.78;;;110.95;;
4294;SDS011;2161;53.634;10.100;2023-04-19T00:43:18;547.43;;;110.17;;
4294;SDS011;2161;53.634;10.100;2023-04-19T00:45:44;547.53;;;112.10;;
4294;SDS011;2161;53.634;10.100;2023-04-19T00:48:10;547.73;;;110.40;;
4294;SDS011;2161;53.634;10.100;2023-04-19T00:50:37;549.80;;;111.63;;
4294;SDS011;2161;53.634;10.100;2023-04-19T00:53:03;545.03;;;110.77;;
4294;SDS011;2161;53.634;10.100;2023-04-19T00:55:28;550.80;;;112.10;;
4294;SDS011;2161;53.634;10.100;2023-04-19T00:57:54;547.13;;;111.00;;
4294;SDS011;2161;53.634;10.100;2023-04-19T01:00:20;548.60;;;110.80;;
4294;SDS011;2161;53.634;10.100;2023-04-19T01:02:45;541.23;;;109.00;;
4294;SDS011;2161;53.634;10.100;2023-04-19T01:05:11;539.70;;;109.27;;
4294;SDS011;2161;53.634;10.100;2023-04-19T01:07:37;545.10;;;111.40;;
4294;SDS011;2161;53.634;10.100;2023-04-19T01:10:03;554.80;;;113.77;;
4294;SDS011;2161;53.634;10.100;2023-04-19T01:12:29;545.42;;;109.38;;
4294;SDS011;2161;53.634;10.100;2023-04-19T01:14:55;543.33;;;110.30;;
4294;SDS011;2161;53.634;10.100;2023-04-19T01:17:20;545.67;;;109.57;;
4294;SDS011;2161;53.634;10.100;2023-04-19T01:19:46;546.73;;;112.37;;
4294;SDS011;2161;53.634;10.100;2023-04-19T01:22:15;544.93;;;111.60;;
4294;SDS011;2161;53.634;10.100;2023-04-19T01:24:46;540.75;;;109.63;;
4294;SDS011;2161;53.634;10.100;2023-04-19T01:27:12;545.87;;;110.67;;
4294;SDS011;2161;53.634;10.100;2023-04-19T01:29:38;545.33;;;110.27;;
4294;SDS011;2161;53.634;10.100;2023-04-19T01:32:03;544.53;;;110.77;;
4294;SDS011;2161;53.634;10.100;2023-04-19T01:34:29;549.27;;;111.87;;
4294;SDS011;2161;53.634;10.100;2023-04-19T01:36:55;547.47;;;110.80;;
4294;SDS011;2161;53.634;10.100;2023-04-19T01:39:20;546.77;;;110.87;;
4294;SDS011;2161;53.634;10.100;2023-04-19T01:41:46;545.60;;;109.73;;
4294;SDS011;2161;53.634;10.100;2023-04-19T01:44:11;555.10;;;115.53;;
4294;SDS011;2161;53.634;10.100;2023-04-19T01:46:37;544.73;;;111.40;;
4294;SDS011;2161;53.634;10.100;2023-04-19T01:49:02;558.10;;;117.77;;
4294;SDS011;2161;53.634;10.100;2023-04-19T01:51:28;543.33;;;109.93;;
4294;SDS011;2161;53.634;10.100;2023-04-19T01:53:54;549.80;;;111.33;;
4294;SDS011;2161;53.634;10.100;2023-04-19T01:56:19;545.03;;;111.37;;
4294;SDS011;2161;53.634;10.100;2023-04-19T01:58:46;547.83;;;110.07;;
4294;SDS011;2161;53.634;10.100;2023-04-19T02:01:11;550.50;;;112.37;;
4294;SDS011;2161;53.634;10.100;2023-04-19T02:03:37;545.03;;;109.87;;
4294;SDS011;2161;53.634;10.100;2023-04-19T02:06:03;547.45;;;111.18;;
4294;SDS011;2161;53.634;10.100;2023-04-19T02:08:29;547.97;;;111.20;;
4294;SDS011;2161;53.634;10.100;2023-04-19T02:10:54;542.80;;;110.47;;
4294;SDS011;2161;53.634;10.100;2023-04-19T02:13:20;544.33;;;109.57;;
4294;SDS011;2161;53.634;10.100;2023-04-19T02:15:46;550.37;;;113.73;;
4294;SDS011;2161;53.634;10.100;2023-04-19T02:18:11;545.27;;;109.77;;
4294;SDS011;2161;53.634;10.100;2023-04-19T02:20:37;552.57;;;114.03;;
4294;SDS011;2161;53.634;10.100;2023-04-19T02:23:03;544.13;;;109.37;;
4294;SDS011;2161;53.634;10.100;2023-04-19T02:25:28;552.80;;;114.33;;
4294;SDS011;2161;53.634;10.100;2023-04-19T02:27:54;547.20;;;110.88;;
4294;SDS011;2161;53.634;10.100;2023-04-19T02:30:20;545.63;;;110.87;;
4294;SDS011;2161;53.634;10.100;2023-04-19T02:32:46;550.60;;;113.50;;
4294;SDS011;2161;53.634;10.100;2023-04-19T02:35:12;547.20;;;111.28;;
4294;SDS011;2161;53.634;10.100;2023-04-19T02:37:38;544.50;;;110.53;;
4294;SDS011;2161;53.634;10.100;2023-04-19T02:40:03;544.67;;;112.37;;
4294;SDS011;2161;53.634;10.100;2023-04-19T02:42:30;545.10;;;111.82;;
4294;SDS011;2161;53.634;10.100;2023-04-19T02:44:55;547.10;;;111.90;;
4294;SDS011;2161;53.634;10.100;2023-04-19T02:47:21;546.90;;;111.80;;
4294;SDS011;2161;53.634;10.100;2023-04-19T02:49:46;548.73;;;113.07;;
4294;SDS011;2161;53.634;10.100;2023-04-19T02:52:12;540.23;;;108.87;;
4294;SDS011;2161;53.634;10.100;2023-04-19T02:54:38;544.20;;;110.50;;
4294;SDS011;2161;53.634;10.100;2023-04-19T02:57:03;540.20;;;108.37;;
4294;SDS011;2161;53.634;10.100;2023-04-19T02:59:29;541.63;;;109.77;;
4294;SDS011;2161;53.634;10.100;2023-04-19T03:01:54;546.40;;;111.57;;
4294;SDS011;2161;53.634;10.100;2023-04-19T03:04:20;542.83;;;110.87;;
4294;SDS011;2161;53.634;10.100;2023-04-19T03:06:46;547.13;;;112.47;;
4294;SDS011;2161;53.634;10.100;2023-04-19T03:09:11;536.87;;;108.17;;
4294;SDS011;2161;53.634;10.100;2023-04-19T03:11:37;537.97;;;108.80;;
4294;SDS011;2161;53.634;10.100;2023-04-19T03:14:02;553.23;;;116.30;;
4294;SDS011;2161;53.634;10.100;2023-04-19T03:16:28;545.73;;;111.30;;
4294;SDS011;2161;53.634;10.100;2023-04-19T03:18:54;545.37;;;110.87;;
4294;SDS011;2161;53.634;10.100;2023-04-19T03:21:19;537.53;;;107.40;;
4294;SDS011;2161;53.634;10.100;2023-04-19T03:23:45;544.43;;;110.37;;
4294;SDS011;2161;53.634;10.100;2023-04-19T03:26:11;539.40;;;110.60;;
4294;SDS011;2161;53.634;10.100;2023-04-19T03:28:36;539.37;;;109.50;;
4294;SDS011;2161;53.634;10.100;2023-04-19T03:31:02;541.73;;;109.70;;
4294;SDS011;2161;53.634;10.100;2023-04-19T03:33:27;541.23;;;111.27;;
4294;SDS011;2161;53.634;10.100;2023-04-19T03:35:53;542.77;;;110.40;;
4294;SDS011;2161;53.634;10.100;2023-04-19T03:38:18;540.20;;;111.00;;
4294;SDS011;2161;53.634;10.100;2023-04-19T03:40:44;539.07;;;109.00;;
4294;SDS011;2161;53.634;10.100;2023-04-19T03:43:11;541.40;;;109.25;;
4294;SDS011;2161;53.634;10.100;2023-04-19T03:45:36;540.77;;;109.50;;
4294;SDS011;2161;53.634;10.100;2023-04-19T03:48:02;539.47;;;108.97;;
4294;SDS011;2161;53.634;10.100;2023-04-19T03:50:27;537.53;;;108.57;;
4294;SDS011;2161;53.634;10.100;2023-04-19T03:52:53;537.50;;;109.47;;
4294;SDS011;2161;53.634;10.100;2023-04-19T03:55:18;542.17;;;110.30;;
4294;SDS011;2161;53.634;10.100;2023-04-19T03:57:44;542.03;;;110.90;;
4294;SDS011;2161;53.634;10.100;2023-04-19T04:00:10;533.83;;;107.70;;
4294;SDS011;2161;53.634;10.100;2023-04-19T04:02:36;538.65;;;108.32;;
4294;SDS011;2161;53.634;10.100;2023-04-19T04:05:02;537.88;;;107.88;;
4294;SDS011;2161;53.634;10.100;2023-04-19T04:07:28;533.57;;;108.17;;
4294;SDS011;2161;53.634;10.100;2023-04-19T04:09:54;540.43;;;111.10;;
4294;SDS011;2161;53.634;10.100;2023-04-19T04:12:19;541.83;;;111.50;;
4294;SDS011;2161;53.634;10.100;2023-04-19T04:14:45;535.63;;;108.83;;
4294;SDS011;2161;53.634;10.100;2023-04-19T04:17:10;541.93;;;109.83;;
4294;SDS011;2161;53.634;10.100;2023-04-19T04:19:36;541.13;;;110.83;;
4294;SDS011;2161;53.634;10.100;2023-04-19T04:22:02;537.63;;;109.63;;
4294;SDS011;2161;53.634;10.100;2023-04-19T04:24:28;537.72;;;108.15;;
4294;SDS011;2161;53.634;10.100;2023-04-19T04:26:55;536.65;;;108.60;;
4294;SDS011;2161;53.634;10.100;2023-04-19T04:29:21;536.13;;;108.10;;
4294;SDS011;2161;53.634;10.100;2023-04-19T04:31:47;535.83;;;109.93;;
4294;SDS011;2161;53.634;10.100;2023-04-19T04:34:12;538.77;;;109.20;;
4294;SDS011;2161;53.634;10.100;2023-04-19T04:36:38;533.90;;;107.97;;
4294;SDS011;2161;53.634;10.100;2023-04-19T04:39:05;539.08;;;110.30;;
4294;SDS011;2161;53.634;10.100;2023-04-19T04:41:34;534.25;;;107.85;;
4294;SDS011;2161;53.634;10.100;2023-04-19T04:43:59;548.80;;;114.50;;
4294;SDS011;2161;53.634;10.100;2023-04-19T04:46:28;536.67;;;108.72;;
4294;SDS011;2161;53.634;10.100;2023-04-19T04:48:54;538.67;;;110.67;;
4294;SDS011;2161;53.634;10.100;2023-04-19T04:51:19;540.17;;;110.20;;
4294;SDS011;2161;53.634;10.100;2023-04-19T04:53:45;537.60;;;108.83;;
4294;SDS011;2161;53.634;10.100;2023-04-19T04:56:11;537.42;;;109.07;;
4294;SDS011;2161;53.634;10.100;2023-04-19T04:58:36;536.97;;;108.77;;
4294;SDS011;2161;53.634;10.100;2023-04-19T05:01:02;537.70;;;108.83;;
4294;SDS011;2161;53.634;10.100;2023-04-19T05:03:28;538.87;;;109.63;;
4294;SDS011;2161;53.634;10.100;2023-04-19T05:05:53;545.33;;;112.20;;
4294;SDS011;2161;53.634;10.100;2023-04-19T05:08:20;540.47;;;110.20;;
4294;SDS011;2161;53.634;10.100;2023-04-19T05:10:45;539.70;;;110.40;;
4294;SDS011;2161;53.634;10.100;2023-04-19T05:13:11;540.50;;;110.13;;
4294;SDS011;2161;53.634;10.100;2023-04-19T05:15:36;537.40;;;108.97;;
4294;SDS011;2161;53.634;10.100;2023-04-19T05:18:02;544.57;;;111.17;;
4294;SDS011;2161;53.634;10.100;2023-04-19T05:20:28;542.97;;;110.67;;
4294;SDS011;2161;53.634;10.100;2023-04-19T05:22:57;541.33;;;111.40;;
4294;SDS011;2161;53.634;10.100;2023-04-19T05:25:24;535.08;;;108.93;;
4294;SDS011;2161;53.634;10.100;2023-04-19T05:27:50;539.87;;;108.87;;
4294;SDS011;2161;53.634;10.100;2023-04-19T05:30:15;545.37;;;112.33;;
4294;SDS011;2161;53.634;10.100;2023-04-19T05:32:41;541.33;;;109.60;;
4294;SDS011;2161;53.634;10.100;2023-04-19T05:35:07;541.33;;;110.47;;
4294;SDS011;2161;53.634;10.100;2023-04-19T05:37:32;541.10;;;109.50;;
4294;SDS011;2161;53.634;10.100;2023-04-19T05:39:58;539.53;;;109.43;;
4294;SDS011;2161;53.634;10.100;2023-04-19T05:42:24;545.53;;;112.43;;
4294;SDS011;2161;53.634;10.100;2023-04-19T05:44:49;543.93;;;111.00;;
4294;SDS011;2161;53.634;10.100;2023-04-19T05:47:15;547.20;;;112.73;;
4294;SDS011;2161;53.634;10.100;2023-04-19T05:49:41;543.05;;;110.53;;
4294;SDS011;2161;53.634;10.100;2023-04-19T05:52:07;548.00;;;112.00;;
4294;SDS011;2161;53.634;10.100;2023-04-19T05:54:32;540.47;;;109.80;;
4294;SDS011;2161;53.634;10.100;2023-04-19T05:57:00;541.75;;;109.45;;
4294;SDS011;2161;53.634;10.100;2023-04-19T05:59:26;543.22;;;109.72;;
4294;SDS011;2161;53.634;10.100;2023-04-19T06:01:51;546.33;;;111.17;;
4294;SDS011;2161;53.634;10.100;2023-04-19T06:04:17;547.73;;;112.60;;
4294;SDS011;2161;53.634;10.100;2023-04-19T06:06:42;546.87;;;112.37;;
4294;SDS011;2161;53.634;10.100;2023-04-19T06:09:08;544.47;;;109.50;;
4294;SDS011;2161;53.634;10.100;2023-04-19T06:11:33;548.83;;;112.10;;
4294;SDS011;2161;53.634;10.100;2023-04-19T06:13:59;553.00;;;113.93;;
4294;SDS011;2161;53.634;10.100;2023-04-19T06:16:24;547.40;;;110.93;;
4294;SDS011;2161;53.634;10.100;2023-04-19T06:18:50;549.37;;;111.87;;
4294;SDS011;2161;53.634;10.100;2023-04-19T06:21:16;544.80;;;110.23;;
4294;SDS011;2161;53.634;10.100;2023-04-19T06:23:41;545.70;;;111.13;;
4294;SDS011;2161;53.634;10.100;2023-04-19T06:26:07;550.23;;;111.80;;
4294;SDS011;2161;53.634;10.100;2023-04-19T06:28:32;549.63;;;110.77;;
4294;SDS011;2161;53.634;10.100;2023-04-19T06:30:58;549.43;;;111.00;;
4294;SDS011;2161;53.634;10.100;2023-04-19T06:33:23;546.33;;;110.27;;
4294;SDS011;2161;53.634;10.100;2023-04-19T06:35:49;550.87;;;111.70;;
4294;SDS011;2161;53.634;10.100;2023-04-19T06:38:14;545.13;;;109.50;;
4294;SDS011;2161;53.634;10.100;2023-04-19T06:40:40;547.03;;;111.27;;
4294;SDS011;2161;53.634;10.100;2023-04-19T06:43:05;548.13;;;111.53;;
4294;SDS011;2161;53.634;10.100;2023-04-19T06:45:31;548.53;;;111.20;;
4294;SDS011;2161;53.634;10.100;2023-04-19T06:47:57;550.53;;;110.90;;
4294;SDS011;2161;53.634;10.100;2023-04-19T06:50:22;553.00;;;112.33;;
4294;SDS011;2161;53.634;10.100;2023-04-19T06:52:48;554.20;;;113.07;;
4294;SDS011;2161;53.634;10.100;2023-04-19T06:55:13;549.27;;;110.47;;
4294;SDS011;2161;53.634;10.100;2023-04-19T06:57:39;552.13;;;111.80;;
4294;SDS011;2161;53.634;10.100;2023-04-19T07:00:05;553.10;;;111.47;;
4294;SDS011;2161;53.634;10.100;2023-04-19T07:02:31;558.47;;;113.60;;
4294;SDS011;2161;53.634;10.100;2023-04-19T07:04:56;555.43;;;112.00;;
4294;SDS011;2161;53.634;10.100;2023-04-19T07:07:22;554.97;;;112.60;;
4294;SDS011;2161;53.634;10.100;2023-04-19T07:09:47;557.73;;;114.40;;
4294;SDS011;2161;53.634;10.100;2023-04-19T07:12:13;549.80;;;110.57;;
4294;SDS011;2161;53.634;10.100;2023-04-19T07:14:38;556.17;;;112.93;;
4294;SDS011;2161;53.634;10.100;2023-04-19T07:17:04;558.63;;;113.57;;
4294;SDS011;2161;53.634;10.100;2023-04-19T07:19:29;556.37;;;112.43;;
4294;SDS011;2161;53.634;10.100;2023-04-19T07:21:55;566.87;;;117.97;;
4294;SDS011;2161;53.634;10.100;2023-04-19T07:24:20;561.70;;;114.13;;
4294;SDS011;2161;53.634;10.100;2023-04-19T07:26:46;565.00;;;115.57;;
4294;SDS011;2161;53.634;10.100;2023-04-19T07:29:12;559.80;;;115.37;;
4294;SDS011;2161;53.634;10.100;2023-04-19T07:31:37;566.23;;;116.40;;
4294;SDS011;2161;53.634;10.100;2023-04-19T07:34:03;567.87;;;117.53;;
4294;SDS011;2161;53.634;10.100;2023-04-19T07:36:28;564.67;;;114.97;;
4294;SDS011;2161;53.634;10.100;2023-04-19T07:38:55;564.13;;;115.57;;
4294;SDS011;2161;53.634;10.100;2023-04-19T07:41:21;565.63;;;115.00;;
4294;SDS011;2161;53.634;10.100;2023-04-19T07:43:47;566.80;;;116.05;;
4294;SDS011;2161;53.634;10.100;2023-04-19T07:46:13;569.03;;;115.83;;
4294;SDS011;2161;53.634;10.100;2023-04-19T07:48:42;569.05;;;116.07;;
4294;SDS011;2161;53.634;10.100;2023-04-19T07:51:09;566.37;;;114.57;;
4294;SDS011;2161;53.634;10.100;2023-04-19T07:53:34;568.10;;;115.60;;
4294;SDS011;2161;53.634;10.100;2023-04-19T07:56:00;565.80;;;115.30;;
4294;SDS011;2161;53.634;10.100;2023-04-19T07:58:25;566.33;;;115.47;;
4294;SDS011;2161;53.634;10.100;2023-04-19T08:00:51;572.43;;;116.77;;
4294;SDS011;2161;53.634;10.100;2023-04-19T08:03:16;570.87;;;117.13;;
4294;SDS011;2161;53.634;10.100;2023-04-19T08:05:42;569.43;;;115.10;;
4294;SDS011;2161;53.634;10.100;2023-04-19T08:08:07;570.73;;;116.33;;
4294;SDS011;2161;53.634;10.100;2023-04-19T08:10:33;565.73;;;113.33;;
4294;SDS011;2161;53.634;10.100;2023-04-19T08:12:59;571.83;;;116.43;;
4294;SDS011;2161;53.634;10.100;2023-04-19T08:15:25;567.90;;;114.87;;
4294;SDS011;2161;53.634;10.100;2023-04-19T08:17:50;571.20;;;118.07;;
4294;SDS011;2161;53.634;10.100;2023-04-19T08:20:16;574.50;;;119.67;;
4294;SDS011;2161;53.634;10.100;2023-04-19T08:22:41;572.67;;;116.37;;
4294;SDS011;2161;53.634;10.100;2023-04-19T08:25:07;576.40;;;117.57;;
4294;SDS011;2161;53.634;10.100;2023-04-19T08:27:34;576.47;;;117.83;;
4294;SDS011;2161;53.634;10.100;2023-04-19T08:29:59;575.17;;;117.63;;
4294;SDS011;2161;53.634;10.100;2023-04-19T08:32:25;577.13;;;118.27;;
4294;SDS011;2161;53.634;10.100;2023-04-19T08:34:51;581.20;;;120.07;;
4294;SDS011;2161;53.634;10.100;2023-04-19T08:37:17;576.33;;;117.50;;
4294;SDS011;2161;53.634;10.100;2023-04-19T08:39:42;582.83;;;122.17;;
4294;SDS011;2161;53.634;10.100;2023-04-19T08:42:08;582.33;;;119.13;;
4294;SDS011;2161;53.634;10.100;2023-04-19T08:44:34;584.67;;;120.87;;
4294;SDS011;2161;53.634;10.100;2023-04-19T08:47:02;578.53;;;117.43;;
4294;SDS011;2161;53.634;10.100;2023-04-19T08:49:28;583.20;;;118.33;;
4294;SDS011;2161;53.634;10.100;2023-04-19T08:51:56;588.40;;;122.63;;
4294;SDS011;2161;53.634;10.100;2023-04-19T08:54:22;586.73;;;120.40;;
4294;SDS011;2161;53.634;10.100;2023-04-19T08:56:48;589.00;;;121.07;;
4294;SDS011;2161;53.634;10.100;2023-04-19T08:59:14;586.73;;;120.60;;
4294;SDS011;2161;53.634;10.100;2023-04-19T09:01:39;585.90;;;119.27;;
4294;SDS011;2161;53.634;10.100;2023-04-19T09:04:05;601.27;;;126.97;;
4294;SDS011;2161;53.634;10.100;2023-04-19T09:06:35;591.07;;;121.57;;
4294;SDS011;2161;53.634;10.100;2023-04-19T09:09:14;588.93;;;119.37;;
4294;SDS011;2161;53.634;10.100;2023-04-19T09:11:44;590.73;;;121.97;;
4294;SDS011;2161;53.634;10.100;2023-04-19T09:14:10;596.57;;;126.10;;
4294;SDS011;2161;53.634;10.100;2023-04-19T09:16:37;596.17;;;124.40;;
4294;SDS011;2161;53.634;10.100;2023-04-19T09:19:03;593.10;;;120.97;;
4294;SDS011;2161;53.634;10.100;2023-04-19T09:21:30;596.73;;;122.93;;
4294;SDS011;2161;53.634;10.100;2023-04-19T09:23:56;591.73;;;121.27;;
4294;SDS011;2161;53.634;10.100;2023-04-19T09:26:23;595.57;;;121.10;;
4294;SDS011;2161;53.634;10.100;2023-04-19T09:31:31;595.43;;;123.60;;
4294;SDS011;2161;53.634;10.100;2023-04-19T09:34:14;608.77;;;127.63;;
4294;SDS011;2161;53.634;10.100;2023-04-19T09:36:41;598.70;;;123.50;;
4294;SDS011;2161;53.634;10.100;2023-04-19T09:39:07;599.37;;;124.33;;
4294;SDS011;2161;53.634;10.100;2023-04-19T09:41:32;604.73;;;128.37;;
4294;SDS011;2161;53.634;10.100;2023-04-19T09:44:11;604.83;;;126.47;;
4294;SDS011;2161;53.634;10.100;2023-04-19T09:46:39;605.00;;;124.60;;
4294;SDS011;2161;53.634;10.100;2023-04-19T09:51:44;612.03;;;130.17;;
4294;SDS011;2161;53.634;10.100;2023-04-19T09:54:11;622.13;;;136.43;;
4294;SDS011;2161;53.634;10.100;2023-04-19T09:56:39;611.93;;;125.07;;
4294;SDS011;2161;53.634;10.100;2023-04-19T09:59:05;611.63;;;127.23;;
4294;SDS011;2161;53.634;10.100;2023-04-19T10:01:34;614.33;;;128.00;;
4294;SDS011;2161;53.634;10.100;2023-04-19T10:04:03;619.80;;;134.23;;
4294;SDS011;2161;53.634;10.100;2023-04-19T10:06:30;615.20;;;128.03;;
4294;SDS011;2161;53.634;10.100;2023-04-19T10:08:57;614.60;;;128.67;;
4294;SDS011;2161;53.634;10.100;2023-04-19T10:11:25;616.70;;;130.33;;
4294;SDS011;2161;53.634;10.100;2023-04-19T10:14:05;630.93;;;136.37;;
4294;SDS011;2161;53.634;10.100;2023-04-19T10:16:35;621.47;;;133.13;;
4294;SDS011;2161;53.634;10.100;2023-04-19T10:19:04;613.17;;;126.43;;
4294;SDS011;2161;53.634;10.100;2023-04-19T10:21:32;611.53;;;125.40;;
4294;SDS011;2161;53.634;10.100;2023-04-19T10:23:59;620.93;;;132.50;;
4294;SDS011;2161;53.634;10.100;2023-04-19T10:26:26;616.67;;;131.27;;
4294;SDS011;2161;53.634;10.100;2023-04-19T10:28:55;620.77;;;129.37;;
4294;SDS011;2161;53.634;10.100;2023-04-19T10:31:21;619.33;;;132.77;;
4294;SDS011;2161;53.634;10.100;2023-04-19T10:33:49;614.53;;;127.47;;
4294;SDS011;2161;53.634;10.100;2023-04-19T10:36:15;619.27;;;132.73;;
4294;SDS011;2161;53.634;10.100;2023-04-19T10:41:10;619.50;;;130.13;;
4294;SDS011;2161;53.634;10.100;2023-04-19T10:43:38;617.47;;;127.30;;
4294;SDS011;2161;53.634;10.100;2023-04-19T10:46:13;617.60;;;130.93;;
4294;SDS011;2161;53.634;10.100;2023-04-19T10:48:44;624.60;;;133.37;;
4294;SDS011;2161;53.634;10.100;2023-04-19T10:51:21;627.17;;;134.53;;
4294;SDS011;2161;53.634;10.100;2023-04-19T10:53:58;619.33;;;129.03;;
4294;SDS011;2161;53.634;10.100;2023-04-19T11:04:56;620.93;;;128.23;;
4294;SDS011;2161;53.634;10.100;2023-04-19T11:07:23;623.90;;;129.37;;
4294;SDS011;2161;53.634;10.100;2023-04-19T11:09:49;621.43;;;128.17;;
4294;SDS011;2161;53.634;10.100;2023-04-19T11:12:16;622.43;;;131.33;;
4294;SDS011;2161;53.634;10.100;2023-04-19T11:14:46;623.60;;;130.27;;
4294;SDS011;2161;53.634;10.100;2023-04-19T11:22:31;628.13;;;133.97;;
4294;SDS011;2161;53.634;10.100;2023-04-19T11:27:36;626.33;;;131.93;;
4294;SDS011;2161;53.634;10.100;2023-04-19T11:30:03;625.43;;;133.27;;
4294;SDS011;2161;53.634;10.100;2023-04-19T11:32:30;627.10;;;135.60;;
4294;SDS011;2161;53.634;10.100;2023-04-19T11:34:56;633.60;;;139.10;;
4294;SDS011;2161;53.634;10.100;2023-04-19T11:37:22;630.20;;;135.13;;
4294;SDS011;2161;53.634;10.100;2023-04-19T11:39:48;628.30;;;135.77;;
4294;SDS011;2161;53.634;10.100;2023-04-19T11:42:17;629.40;;;136.17;;
4294;SDS011;2161;53.634;10.100;2023-04-19T11:44:47;630.80;;;139.00;;
4294;SDS011;2161;53.634;10.100;2023-04-19T11:47:16;631.00;;;135.10;;
4294;SDS011;2161;53.634;10.100;2023-04-19T11:49:42;628.23;;;130.83;;
4294;SDS011;2161;53.634;10.100;2023-04-19T11:52:08;626.93;;;131.27;;
4294;SDS011;2161;53.634;10.100;2023-04-19T11:54:33;629.93;;;132.07;;
4294;SDS011;2161;53.634;10.100;2023-04-19T11:57:02;630.57;;;132.00;;
4294;SDS011;2161;53.634;10.100;2023-04-19T11:59:30;628.73;;;130.87;;
4294;SDS011;2161;53.634;10.100;2023-04-19T12:02:09;630.10;;;134.27;;
4294;SDS011;2161;53.634;10.100;2023-04-19T12:04:36;631.37;;;136.33;;
4294;SDS011;2161;53.634;10.100;2023-04-19T12:07:03;636.83;;;138.10;;
4294;SDS011;2161;53.634;10.100;2023-04-19T12:09:32;625.90;;;130.53;;
4294;SDS011;2161;53.634;10.100;2023-04-19T12:12:01;628.43;;;129.70;;
4294;SDS011;2161;53.634;10.100;2023-04-19T12:14:27;630.20;;;133.63;;
4294;SDS011;2161;53.634;10.100;2023-04-19T12:19:45;626.80;;;130.33;;
4294;SDS011;2161;53.634;10.100;2023-04-19T12:22:15;637.97;;;138.40;;
4294;SDS011;2161;53.634;10.100;2023-04-19T12:24:44;628.13;;;132.50;;
4294;SDS011;2161;53.634;10.100;2023-04-19T12:27:09;634.77;;;135.73;;
4294;SDS011;2161;53.634;10.100;2023-04-19T12:29:35;632.07;;;137.60;;
4294;SDS011;2161;53.634;10.100;2023-04-19T12:32:01;633.93;;;135.43;;
4294;SDS011;2161;53.634;10.100;2023-04-19T12:34:27;634.80;;;134.93;;
4294;SDS011;2161;53.634;10.100;2023-04-19T12:36:53;634.97;;;136.07;;
4294;SDS011;2161;53.634;10.100;2023-04-19T12:39:19;629.37;;;133.17;;
4294;SDS011;2161;53.634;10.100;2023-04-19T12:41:45;627.13;;;131.57;;
4294;SDS011;2161;53.634;10.100;2023-04-19T12:44:12;636.43;;;136.40;;
4294;SDS011;2161;53.634;10.100;2023-04-19T12:46:38;633.03;;;134.90;;
4294;SDS011;2161;53.634;10.100;2023-04-19T12:49:04;629.27;;;133.60;;
4294;SDS011;2161;53.634;10.100;2023-04-19T12:51:29;636.20;;;138.60;;
4294;SDS011;2161;53.634;10.100;2023-04-19T12:53:55;627.70;;;130.50;;
4294;SDS011;2161;53.634;10.100;2023-04-19T12:56:21;633.67;;;134.20;;
4294;SDS011;2161;53.634;10.100;2023-04-19T12:58:46;634.17;;;136.20;;
4294;SDS011;2161;53.634;10.100;2023-04-19T13:01:12;630.80;;;134.60;;
4294;SDS011;2161;53.634;10.100;2023-04-19T13:03:37;636.73;;;137.60;;
4294;SDS011;2161;53.634;10.100;2023-04-19T13:06:03;627.07;;;130.37;;
4294;SDS011;2161;53.634;10.100;2023-04-19T13:08:29;629.67;;;132.27;;
4294;SDS011;2161;53.634;10.100;2023-04-19T13:10:55;628.20;;;132.23;;
4294;SDS011;2161;53.634;10.100;2023-04-19T13:13:23;626.47;;;130.80;;
4294;SDS011;2161;53.634;10.100;2023-04-19T13:15:49;636.13;;;138.83;;
4294;SDS011;2161;53.634;10.100;2023-04-19T13:18:15;637.17;;;138.77;;
4294;SDS011;2161;53.634;10.100;2023-04-19T13:20:41;637.53;;;139.33;;
4294;SDS011;2161;53.634;10.100;2023-04-19T13:23:07;636.30;;;139.40;;
4294;SDS011;2161;53.634;10.100;2023-04-19T13:25:32;627.27;;;131.43;;
4294;SDS011;2161;53.634;10.100;2023-04-19T13:27:58;634.17;;;138.13;;
4294;SDS011;2161;53.634;10.100;2023-04-19T13:30:23;639.37;;;142.90;;
4294;SDS011;2161;53.634;10.100;2023-04-19T13:32:50;632.53;;;134.03;;
4294;SDS011;2161;53.634;10.100;2023-04-19T13:35:15;634.00;;;135.97;;
4294;SDS011;2161;53.634;10.100;2023-04-19T13:37:41;633.10;;;133.27;;
4294;SDS011;2161;53.634;10.100;2023-04-19T13:40:08;629.00;;;134.00;;
4294;SDS011;2161;53.634;10.100;2023-04-19T13:42:34;634.67;;;138.17;;
4294;SDS011;2161;53.634;10.100;2023-04-19T13:45:00;629.87;;;135.23;;
4294;SDS011;2161;53.634;10.100;2023-04-19T13:47:25;633.97;;;135.97;;
4294;SDS011;2161;53.634;10.100;2023-04-19T13:49:50;639.70;;;147.03;;
4294;SDS011;2161;53.634;10.100;2023-04-19T13:52:19;631.20;;;136.20;;
4294;SDS011;2161;53.634;10.100;2023-04-19T13:54:46;639.57;;;141.63;;
4294;SDS011;2161;53.634;10.100;2023-04-19T13:57:11;629.03;;;132.70;;
4294;SDS011;2161;53.634;10.100;2023-04-19T13:59:37;634.23;;;135.33;;
4294;SDS011;2161;53.634;10.100;2023-04-19T14:02:02;634.53;;;135.93;;
4294;SDS011;2161;53.634;10.100;2023-04-19T14:04:28;628.67;;;131.93;;
4294;SDS011;2161;53.634;10.100;2023-04-19T14:06:54;633.00;;;136.73;;
4294;SDS011;2161;53.634;10.100;2023-04-19T14:09:20;631.87;;;135.93;;
4294;SDS011;2161;53.634;10.100;2023-04-19T14:11:46;628.70;;;132.20;;
4294;SDS011;2161;53.634;10.100;2023-04-19T14:14:13;633.63;;;136.83;;
4294;SDS011;2161;53.634;10.100;2023-04-19T14:16:38;630.87;;;135.13;;
4294;SDS011;2161;53.634;10.100;2023-04-19T14:19:04;625.47;;;130.10;;
4294;SDS011;2161;53.634;10.100;2023-04-19T14:21:30;626.53;;;129.97;;
4294;SDS011;2161;53.634;10.100;2023-04-19T14:23:55;626.23;;;136.27;;
4294;SDS011;2161;53.634;10.100;2023-04-19T14:26:21;625.60;;;132.00;;
4294;SDS011;2161;53.634;10.100;2023-04-19T14:28:46;628.20;;;136.53;;
4294;SDS011;2161;53.634;10.100;2023-04-19T14:31:12;624.57;;;132.13;;